AirNav   Textron
 
 1195 users online  

T37 Goldthwaite Municipal Airport
Goldthwaite, Texas, USA


FAA INFORMATION EFFECTIVE 07 DECEMBER 2017

Location

FAA Identifier: T37
Lat/Long: 31-25-44.6400N / 098-36-30.0800W
31-25.744000N / 098-36.501333W
31.4290667 / -98.6083556
(estimated)
Elevation: 1457 ft. / 444 m (estimated)
From city: 2 miles SW of GOLDTHWAITE, TX
Time zone: UTC -6 (UTC -5 during Daylight Saving Time)
Zip code: 76844

Airport Operations

Airport use: Open to the public
Activation date: 08/2010
Control tower: no
ARTCC: FORT WORTH CENTER
FSS: FORT WORTH FLIGHT SERVICE STATION
NOTAMs facility: FTW (NOTAM-D service available)
Attendance: 0800-1700
Wind indicator: lighted
Segmented circle: yes

Airport Communications

CTAF: 122.9
WX AWOS-3 at 81R (13 nm SW): PHONE 325-372-6027

Nearby radio navigation aids

VOR radial/distance  VOR name  Freq  Var
AGJr296/28.0GOOCH SPRINGS VORTAC112.5005E
BWDr139/33.0BROWNWOOD VOR/DME108.6008E
LLOr006/39.1LLANO VORTAC108.2008E

 
NDB name  Hdg/Dist  Freq  Var  ID
BRADY061/39.638007EBBD -... -... -..

Airport Services

Parking: hangars

Runway Information

Runway 1/19

Dimensions: 3200 x 60 ft. / 975 x 18 m
Surface: asphalt, in good condition
Weight bearing capacity: 
Single wheel: 12.5
RUNWAY 1  RUNWAY 19
Latitude: 31-25.485000N31-26.002833N
Longitude: 098-36.560833W098-36.442000W
Elevation: 1445.0 ft.1457.0 ft.
Traffic pattern: leftleft
Markings: basic, in fair conditionbasic, in fair condition
Obstructions: 3 ft. fence, 200 ft. from runway, 91 ft. left of centerline
3 FT FENCE 0-200 FT FM THLD 91 FT L.
50 ft. tree, 1133 ft. from runway, 32 ft. left of centerline, 18:1 slope to clear

Airport Ownership and Management from official FAA records

Ownership: Publicly-owned
Owner: CITY OF GOLDTHWAITE
PO BOX 450
GOLDTHWAITE, TX 76844-0450
Phone 325-648-3186
Manager: ROBERT LINDSEY
PO BOX 450
GOLDTHWAITE, TX 76844-0450
Phone 325-648-3186
CITY MANAGER

Airport Operational Statistics

Aircraft based on the field: 9
Single engine airplanes: 9
    
Aircraft operations: avg 52/week *
67% local general aviation
33% transient general aviation
* for 12-month period ending 13 September 2017

Additional Remarks

RWY 01 HAS 4 FT FENCE AND ISOLATED + 18 FT TREES 400-475 FT FM THLD ACROSS APCH.
DEER ON & INVOF ARPT.

Instrument Procedures

There are no published instrument procedures at T37.

Some nearby airports with instrument procedures:

KMNZ - Hamilton Municipal Airport (27 nm NE)
KBWD - Brownwood Regional Airport (28 nm NW)
KLZZ - Lampasas Airport (29 nm SE)
KMKN - Comanche County-City Airport (29 nm N)
KAQO - Llano Municipal Airport (39 nm S)
 
Loc | Ops | Rwys | IFR | FBO | Links
Com | Nav | Svcs | Stats | Notes


 
Aerial photo
WARNING: Photo may not be current or correct
Aerial photo of T37 (Goldthwaite Municipal Airport)
Photo taken 20-Sep-2010

Do you have a better or more recent aerial photo of Goldthwaite Municipal Airport that you would like to share? If so, please send us your photo.

 
Sectional chart

 
Airport distance calculator
Flying to Goldthwaite Municipal Airport? Find the distance to fly.

From to T37

Sunrise and sunset
Times for 15-Dec-2017
 Local
(UTC-6)
 Zulu
(UTC)
Morning civil twilight07:0013:00
Sunrise07:2713:27
Sunset17:3223:32
Evening civil twilight17:5923:59

Current date and time
Zulu (UTC)  15-Dec-2017 14:44:09
Local (UTC-6)  15-Dec-2017 08:44:09
 
METAR
KMNZ 
27nm NE 
151415Z AUTO 34009KT 10SM CLR 02/M02 A3031 RMK AO2 T00221018
KBWD 
28nm NW 
151415Z AUTO 34004KT 10SM CLR 00/M04 A3034 RMK AO2
KLZZ 
29nm SE 
151415Z AUTO 32005KT 10SM CLR 04/M03 A3029 RMK AO2 T00411028
KMKN 
29nm N 
151415Z AUTO 31006KT 10SM CLR 02/M02 A3033 RMK AO2 T00201022
KAQO 
39nm S 
151415Z AUTO 31006KT 10SM CLR 04/00 A3036 RMK AO2
KGOP 
42nm E 
151415Z AUTO 00000KT 10SM CLR 02/M03 A3033 RMK AO2
KGRK 
45nm SE 
151358Z 31006KT 8SM FEW230 03/M02 A3029 RMK AO2A SLP261 WND DATA ESTMD T00281024
KBMQ 
46nm SE 
151353Z AUTO 33008KT 10SM CLR 06/M02 A3032 RMK AO2 SLP264 T00561022
KCOM 
48nm NW 
151415Z AUTO 00000KT 10SM CLR 02/M03 A3034 RMK AO2 T00211031
KHLR 
49nm E 
151358Z AUTO 32010KT 8SM FEW230 04/M03 A3027 RMK AO2 SLP252 T00381026
TAF
KBBD 
40nm W 
151120Z 1512/1612 VRB05KT P6SM SCT250 AMD NOT SKED
KGRK 
45nm SE 
150800Z 1508/1614 34006KT 9999 BKN120 510202 QNH3021INS BECMG 1517/1518 01010G15KT 9999 SCT200 QNH3023INS BECMG 1523/1524 35006KT 9999 SCT200 QNH3025INS BECMG 1603/1604 20006KT 9999 SCT200 QNH3016INS TX12/1521Z TN04/1511Z
NOTAMs
Click for the latest NOTAMs
NOTAMs are issued by the DoD/FAA and will open in a separate window not controlled by AirNav.

 

 
 

Would you like to see your business listed on this page?

 If your business provides an interesting product or service to pilots, flight crews, aircraft, or users of the Goldthwaite Municipal Airport, you should consider listing it here.  To start the listing process, click on the button below
 
Add a business
 

Other Pages about Goldthwaite Municipal Airport

Update a link
 
Copyright © AirNav, LLC. All rights reserved. Privacy Policy  Contact